createdAt,value
2017-05-20T00:01:41.303Z,0.30
2017-05-20T00:04:08.532Z,0.38
2017-05-20T00:06:35.766Z,0.40
2017-05-20T00:09:02.970Z,0.30
2017-05-20T00:11:30.191Z,0.30
2017-05-20T00:13:57.376Z,0.34
2017-05-20T00:16:24.557Z,0.30
2017-05-20T00:18:51.754Z,0.32
2017-05-20T00:21:33.489Z,0.36
2017-05-20T00:24:00.659Z,2.12
2017-05-20T00:26:27.898Z,0.30
2017-05-20T00:28:55.103Z,0.40
2017-05-20T00:31:22.341Z,0.50
2017-05-20T00:33:49.546Z,0.30
2017-05-20T00:36:16.778Z,0.38
2017-05-20T00:38:44.085Z,0.36
2017-05-20T00:41:11.262Z,0.30
2017-05-20T00:43:38.455Z,0.30
2017-05-20T00:46:05.707Z,0.30
2017-05-20T00:48:32.898Z,0.38
2017-05-20T00:51:00.081Z,0.30
2017-05-20T00:53:27.343Z,0.40
2017-05-20T00:55:54.567Z,0.40
2017-05-20T00:58:21.793Z,0.34
2017-05-20T01:00:49.030Z,0.40
2017-05-20T01:03:16.249Z,0.40
2017-05-20T01:05:43.456Z,0.40
2017-05-20T01:08:10.686Z,0.40
2017-05-20T01:10:37.914Z,0.40
2017-05-20T01:13:05.114Z,0.36
2017-05-20T01:15:32.579Z,0.40
2017-05-20T01:17:59.768Z,0.40
2017-05-20T01:20:26.946Z,0.38
2017-05-20T01:22:54.170Z,0.40
2017-05-20T01:25:21.349Z,0.32
2017-05-20T01:27:48.549Z,0.40
2017-05-20T01:30:15.764Z,0.40
2017-05-20T01:32:42.972Z,0.40
2017-05-20T01:35:10.217Z,0.40
2017-05-20T01:37:37.431Z,0.36
2017-05-20T01:40:04.635Z,0.40
2017-05-20T01:42:31.843Z,0.40
2017-05-20T01:44:59.091Z,0.40
2017-05-20T01:47:26.304Z,0.40
2017-05-20T01:49:53.523Z,0.30
2017-05-20T01:52:20.758Z,0.34
2017-05-20T01:54:47.950Z,0.30
2017-05-20T01:57:15.138Z,0.38
2017-05-20T01:59:42.366Z,0.40
2017-05-20T02:02:09.573Z,0.36
2017-05-20T02:04:36.825Z,0.40
2017-05-20T02:07:04.056Z,1.24
2017-05-20T02:09:31.252Z,0.36
2017-05-20T02:11:58.465Z,0.30
2017-05-20T02:14:25.691Z,0.30
2017-05-20T02:16:52.916Z,0.38
2017-05-20T02:19:24.435Z,0.30
2017-05-20T02:21:51.681Z,0.30
2017-05-20T02:24:18.866Z,0.40
2017-05-20T02:26:46.079Z,0.40
2017-05-20T02:29:13.291Z,0.40
2017-05-20T02:31:40.594Z,0.34
2017-05-20T02:34:07.792Z,0.30
2017-05-20T02:36:35.017Z,0.40
2017-05-20T02:39:02.233Z,0.40
2017-05-20T02:41:29.505Z,0.34
2017-05-20T02:43:56.727Z,0.40
2017-05-20T02:46:23.926Z,0.40
2017-05-20T02:48:51.155Z,0.40
2017-05-20T02:51:18.383Z,0.32
2017-05-20T02:53:45.583Z,0.40
2017-05-20T02:56:12.763Z,0.30
2017-05-20T02:58:40.009Z,0.30
2017-05-20T03:01:07.196Z,0.40
2017-05-20T03:03:34.404Z,0.40
2017-05-20T03:06:01.647Z,0.30
2017-05-20T03:08:28.872Z,0.30
2017-05-20T03:10:56.067Z,0.30
2017-05-20T03:13:23.306Z,0.40
2017-05-20T03:15:50.510Z,0.30
2017-05-20T03:18:17.730Z,0.36
2017-05-20T03:20:44.988Z,0.40
2017-05-20T03:23:12.190Z,0.30
2017-05-20T03:25:41.361Z,0.30
2017-05-20T03:28:08.601Z,0.30
2017-05-20T03:30:35.837Z,0.40
2017-05-20T03:33:03.026Z,0.32
2017-05-20T03:35:30.249Z,0.30
2017-05-20T03:37:57.447Z,0.30
2017-05-20T03:40:24.652Z,0.38
2017-05-20T03:42:51.904Z,0.30
2017-05-20T03:45:19.150Z,0.40
2017-05-20T03:47:47.518Z,0.40
2017-05-20T03:50:17.858Z,0.40
2017-05-20T03:52:45.167Z,0.30
2017-05-20T03:55:12.382Z,2.36
2017-05-20T03:57:39.631Z,0.30
2017-05-20T04:00:06.834Z,0.30
2017-05-20T04:02:34.031Z,0.40
2017-05-20T04:05:01.268Z,0.30
2017-05-20T04:07:28.478Z,0.30
2017-05-20T04:09:55.691Z,0.40
2017-05-20T04:12:28.929Z,0.40
2017-05-20T04:14:57.538Z,0.40
2017-05-20T04:17:24.782Z,0.40
2017-05-20T04:19:52.053Z,0.30
2017-05-20T04:22:23.294Z,0.30
2017-05-20T04:24:50.526Z,0.30
2017-05-20T04:27:18.232Z,0.30
2017-05-20T04:29:47.602Z,0.30
2017-05-20T04:32:14.811Z,0.40
2017-05-20T04:34:42.078Z,0.30
2017-05-20T04:37:09.335Z,0.36
2017-05-20T04:39:36.575Z,0.30
2017-05-20T04:42:20.242Z,0.38
2017-05-20T04:44:53.323Z,0.34
2017-05-20T04:47:20.624Z,0.30
2017-05-20T04:49:49.038Z,0.30
2017-05-20T04:52:16.740Z,0.30
2017-05-20T04:54:43.967Z,0.30
2017-05-20T04:57:11.186Z,0.40
2017-05-20T04:59:38.394Z,0.30
2017-05-20T05:02:05.657Z,0.30
2017-05-20T05:04:32.860Z,0.30
2017-05-20T05:07:03.354Z,0.40
2017-05-20T05:09:30.670Z,0.30
2017-05-20T05:11:57.887Z,0.40
2017-05-20T05:14:25.105Z,0.40
2017-05-20T05:16:52.334Z,0.30
2017-05-20T05:19:19.541Z,0.40
2017-05-20T05:21:46.778Z,0.40
2017-05-20T05:24:14.074Z,0.30
2017-05-20T05:26:41.280Z,0.46
2017-05-20T05:29:08.489Z,0.34
2017-05-20T05:31:35.723Z,0.48
2017-05-20T05:34:02.980Z,0.30
2017-05-20T05:36:30.198Z,0.40
2017-05-20T05:38:57.447Z,0.30
2017-05-20T05:41:24.640Z,0.40
2017-05-20T05:43:51.860Z,0.38
2017-05-20T05:46:19.140Z,0.30
2017-05-20T05:48:47.539Z,0.30
2017-05-20T05:51:14.747Z,0.40
2017-05-20T05:53:42.019Z,0.30
2017-05-20T05:56:09.855Z,0.38
2017-05-20T05:58:40.697Z,0.30
2017-05-20T06:01:08.876Z,0.40
2017-05-20T06:03:36.082Z,0.40
2017-05-20T06:06:03.278Z,0.36
2017-05-20T06:08:30.504Z,0.40
2017-05-20T06:10:57.783Z,0.36
2017-05-20T06:13:26.724Z,0.30
2017-05-20T06:15:55.805Z,0.58
2017-05-20T06:18:24.737Z,0.30
2017-05-20T06:21:01.460Z,0.36
2017-05-20T06:23:29.975Z,0.30
2017-05-20T06:25:59.451Z,0.30
2017-05-20T06:28:32.913Z,0.30
2017-05-20T06:31:04.668Z,0.30
2017-05-20T06:33:37.003Z,0.30
2017-05-20T06:36:06.109Z,0.30
2017-05-20T06:38:35.191Z,0.30
2017-05-20T06:41:02.696Z,0.30
2017-05-20T06:43:32.706Z,0.30
2017-05-20T06:46:00.142Z,0.34
2017-05-20T06:48:27.431Z,0.30
2017-05-20T06:50:54.634Z,0.30
2017-05-20T06:53:21.907Z,0.40
2017-05-20T06:55:49.091Z,0.46
2017-05-20T06:58:16.316Z,0.30
2017-05-20T07:00:43.540Z,0.30
2017-05-20T07:03:10.750Z,0.30
2017-05-20T07:05:38.071Z,0.40
2017-05-20T07:08:05.401Z,0.30
2017-05-20T07:10:32.875Z,0.30
2017-05-20T07:13:00.407Z,0.30
2017-05-20T07:15:27.768Z,0.40
2017-05-20T07:17:55.061Z,0.40
2017-05-20T07:20:22.259Z,0.40
2017-05-20T07:22:50.457Z,0.40
2017-05-20T07:25:17.747Z,0.30
2017-05-20T07:27:45.047Z,0.40
2017-05-20T07:30:12.317Z,0.30
2017-05-20T07:32:39.719Z,0.38
2017-05-20T07:35:06.963Z,0.36
2017-05-20T07:37:34.183Z,0.40
2017-05-20T07:40:04.966Z,0.32
2017-05-20T07:42:32.156Z,0.34
2017-05-20T07:44:59.372Z,0.30
2017-05-20T07:47:27.558Z,0.30
2017-05-20T07:50:00.005Z,0.90
2017-05-20T07:52:27.394Z,0.40
2017-05-20T07:54:55.688Z,0.30
2017-05-20T07:57:23.083Z,0.40
2017-05-20T07:59:50.343Z,0.40
2017-05-20T08:02:21.126Z,0.30
2017-05-20T08:04:48.538Z,0.38
2017-05-20T08:07:15.750Z,0.30
2017-05-20T08:09:42.962Z,0.40
2017-05-20T08:12:10.218Z,0.30
2017-05-20T08:14:54.562Z,0.30
2017-05-20T08:17:21.825Z,0.30
2017-05-20T08:19:49.295Z,0.40
2017-05-20T08:22:17.552Z,0.40
2017-05-20T08:24:44.838Z,0.30
2017-05-20T08:27:12.063Z,0.30
2017-05-20T08:29:49.759Z,0.30
2017-05-20T08:32:17.004Z,0.30
2017-05-20T08:34:44.328Z,0.40
2017-05-20T08:37:11.589Z,0.30
2017-05-20T08:39:38.903Z,0.34
2017-05-20T08:42:07.103Z,0.30
2017-05-20T08:44:35.126Z,0.30
2017-05-20T08:47:11.134Z,0.40
2017-05-20T08:49:38.365Z,0.30
2017-05-20T08:52:06.671Z,0.40
2017-05-20T08:54:33.866Z,0.40
2017-05-20T08:57:01.129Z,0.40
2017-05-20T08:59:34.834Z,0.40
2017-05-20T09:02:02.077Z,0.30
2017-05-20T09:04:29.522Z,0.30
2017-05-20T09:06:56.849Z,0.30
2017-05-20T09:09:36.339Z,0.36
2017-05-20T09:12:03.758Z,0.36
2017-05-20T09:14:31.074Z,1.16
2017-05-20T09:16:59.303Z,0.40
2017-05-20T09:19:26.516Z,0.40
2017-05-20T09:21:53.949Z,0.40
2017-05-20T09:24:24.209Z,0.36
2017-05-20T09:26:51.457Z,0.30
2017-05-20T09:29:18.757Z,0.40
2017-05-20T09:31:46.009Z,0.40
2017-05-20T09:34:13.208Z,0.40
2017-05-20T09:36:40.440Z,0.40
2017-05-20T09:39:07.873Z,0.40
2017-05-20T09:41:35.138Z,0.40
2017-05-20T09:44:02.342Z,0.30
2017-05-20T09:46:29.660Z,0.30
2017-05-20T09:48:56.893Z,0.30
2017-05-20T09:51:25.249Z,0.30
2017-05-20T09:53:52.525Z,0.30
2017-05-20T09:56:19.726Z,0.30
2017-05-20T09:58:47.074Z,0.30
2017-05-20T10:01:17.794Z,0.34
2017-05-20T10:03:44.993Z,0.34
2017-05-20T10:06:12.247Z,0.38
2017-05-20T10:08:39.506Z,0.30
2017-05-20T10:11:06.721Z,0.40
2017-05-20T10:13:33.927Z,0.30
2017-05-20T10:16:01.184Z,0.30
2017-05-20T10:18:29.324Z,0.30
2017-05-20T10:20:56.548Z,0.40
2017-05-20T10:23:32.270Z,0.40
2017-05-20T10:25:59.498Z,0.40
2017-05-20T10:28:26.723Z,0.34
2017-05-20T10:30:55.895Z,0.30
2017-05-20T10:33:23.228Z,0.32
2017-05-20T10:35:50.556Z,0.34
2017-05-20T10:38:17.983Z,0.54
2017-05-20T10:40:45.410Z,0.30
2017-05-20T10:43:12.693Z,0.40
2017-05-20T10:45:40.259Z,0.40
2017-05-20T10:48:07.458Z,0.40
2017-05-20T10:50:34.719Z,0.30
2017-05-20T10:53:02.002Z,0.40
2017-05-20T10:55:34.229Z,0.30
2017-05-20T10:58:03.685Z,0.40
2017-05-20T11:00:30.931Z,0.40
2017-05-20T11:02:58.235Z,0.30
2017-05-20T11:05:25.567Z,0.38
2017-05-20T11:07:52.821Z,0.30
2017-05-20T11:10:20.064Z,0.32
2017-05-20T11:12:47.348Z,0.74
2017-05-20T11:15:14.877Z,0.30
2017-05-20T11:17:42.162Z,0.30
2017-05-20T11:20:09.447Z,0.30
2017-05-20T11:22:36.654Z,0.30
2017-05-20T11:25:03.868Z,0.40
2017-05-20T11:27:31.266Z,0.30
2017-05-20T11:29:58.574Z,0.30
2017-05-20T11:32:25.775Z,0.30
2017-05-20T11:34:53.087Z,0.40
2017-05-20T11:37:20.302Z,0.86
2017-05-20T11:40:01.901Z,0.80
2017-05-20T11:42:29.177Z,0.30
2017-05-20T11:44:56.650Z,0.30
2017-05-20T11:47:25.159Z,7.40
2017-05-20T11:49:52.698Z,9.96
2017-05-20T11:52:19.932Z,11.34
2017-05-20T11:54:50.212Z,9.74
2017-05-20T11:57:17.443Z,10.58
2017-05-20T11:59:44.652Z,10.62
2017-05-20T12:02:11.930Z,10.34
2017-05-20T12:04:39.781Z,10.24
2017-05-20T12:07:24.446Z,10.48
2017-05-20T12:09:51.699Z,10.44
2017-05-20T12:12:22.994Z,10.98
2017-05-20T12:14:50.244Z,11.52
2017-05-20T12:17:17.474Z,12.84
2017-05-20T12:19:44.770Z,11.36
2017-05-20T12:22:12.079Z,11.06
2017-05-20T12:24:39.303Z,11.94
2017-05-20T12:27:06.614Z,11.38
2017-05-20T12:29:33.885Z,11.34
2017-05-20T12:32:01.114Z,11.98
2017-05-20T12:34:28.353Z,9.76
2017-05-20T12:36:55.592Z,8.96
2017-05-20T12:39:37.670Z,8.60
2017-05-20T12:42:04.904Z,9.20
2017-05-20T12:44:33.232Z,9.50
2017-05-20T12:47:03.449Z,10.34
2017-05-20T12:49:32.320Z,9.90
2017-05-20T12:52:02.736Z,11.46
2017-05-20T12:54:30.018Z,11.48
2017-05-20T12:56:57.876Z,11.18
2017-05-20T12:59:25.137Z,12.16
2017-05-20T13:01:54.529Z,11.40
2017-05-20T13:04:24.209Z,10.08
2017-05-20T13:06:55.283Z,10.20
2017-05-20T13:09:24.580Z,10.84
2017-05-20T13:14:48.536Z,11.52
2017-05-20T13:17:15.813Z,10.42
2017-05-20T13:19:50.981Z,9.30
2017-05-20T13:22:18.443Z,9.88
2017-05-20T13:24:45.808Z,11.34
2017-05-20T13:27:13.095Z,10.28
2017-05-20T13:29:44.008Z,9.62
2017-05-20T13:32:11.812Z,9.82
2017-05-20T13:34:39.150Z,9.22
2017-05-20T13:37:06.595Z,8.98
2017-05-20T13:39:36.844Z,9.82
2017-05-20T13:42:05.417Z,8.80
2017-05-20T13:44:32.679Z,8.90
2017-05-20T13:47:02.006Z,7.00
2017-05-20T13:49:29.351Z,7.34
2017-05-20T13:51:56.704Z,9.66
2017-05-20T13:54:23.921Z,5.58
2017-05-20T13:57:04.315Z,6.42
2017-05-20T13:59:31.712Z,6.92
2017-05-20T14:01:58.959Z,6.20
2017-05-20T14:04:27.990Z,10.28
2017-05-20T14:06:55.282Z,5.68
2017-05-20T14:09:28.902Z,5.16
2017-05-20T14:11:59.425Z,5.30
2017-05-20T14:14:26.639Z,4.92
2017-05-20T14:16:54.032Z,4.94
2017-05-20T14:19:21.530Z,5.68
2017-05-20T14:24:49.810Z,5.24
2017-05-20T14:27:17.066Z,5.28
2017-05-20T14:29:44.375Z,5.26
2017-05-20T14:32:20.154Z,4.70
2017-05-20T14:34:47.609Z,4.42
2017-05-20T14:37:14.810Z,4.70
2017-05-20T14:39:42.098Z,4.52
2017-05-20T14:42:16.929Z,4.48
2017-05-20T14:44:44.156Z,5.14
2017-05-20T14:47:13.951Z,4.62
2017-05-20T14:52:13.448Z,4.68
2017-05-20T14:54:40.703Z,4.10
2017-05-20T14:57:11.301Z,4.80
2017-05-20T14:59:38.594Z,4.56
2017-05-20T15:02:05.829Z,3.82
2017-05-20T15:04:33.094Z,4.28
2017-05-20T15:07:00.358Z,4.20
2017-05-20T15:09:27.546Z,4.20
2017-05-20T15:11:54.766Z,4.68
2017-05-20T15:14:22.072Z,4.40
2017-05-20T15:16:50.553Z,4.82
2017-05-20T15:19:17.938Z,4.90
2017-05-20T15:21:46.350Z,4.18
2017-05-20T15:24:13.638Z,5.12
2017-05-20T15:26:41.090Z,4.68
2017-05-20T15:29:08.382Z,4.68
2017-05-20T15:31:35.610Z,6.26
2017-05-20T15:34:02.834Z,4.70
2017-05-20T15:36:30.089Z,4.56
2017-05-20T15:38:57.282Z,9.22
2017-05-20T15:41:24.507Z,5.26
2017-05-20T15:43:51.825Z,6.12
2017-05-20T15:46:19.091Z,5.28
2017-05-20T15:48:47.771Z,4.96
2017-05-20T15:51:15.034Z,5.38
2017-05-20T15:53:42.261Z,5.08
2017-05-20T15:56:09.467Z,4.90
2017-05-20T15:58:38.858Z,4.50
2017-05-20T16:01:06.103Z,4.80
2017-05-20T16:03:33.326Z,4.68
2017-05-20T16:06:00.576Z,4.36
2017-05-20T16:08:27.969Z,4.36
2017-05-20T16:10:55.288Z,4.98
2017-05-20T16:13:22.523Z,4.50
2017-05-20T16:15:54.931Z,5.06
2017-05-20T16:18:22.171Z,6.02
2017-05-20T16:20:51.415Z,4.60
2017-05-20T16:23:18.639Z,4.88
2017-05-20T16:25:45.908Z,4.82
2017-05-20T16:28:13.103Z,6.18
2017-05-20T16:30:40.303Z,5.30
2017-05-20T16:33:07.592Z,4.90
2017-05-20T16:35:34.860Z,5.12
2017-05-20T16:38:08.562Z,4.72
2017-05-20T16:40:35.785Z,5.38
2017-05-20T16:43:03.179Z,4.60
2017-05-20T16:45:32.481Z,5.48
2017-05-20T16:48:00.604Z,5.36
2017-05-20T16:50:44.397Z,6.08
2017-05-20T16:53:11.684Z,5.86
2017-05-20T16:55:39.363Z,6.54
2017-05-20T16:58:06.671Z,6.50
2017-05-20T17:00:35.174Z,5.10
2017-05-20T17:03:02.848Z,6.00
2017-05-20T17:05:30.156Z,6.48
2017-05-20T17:08:02.539Z,5.58
2017-05-20T17:10:46.228Z,6.34
2017-05-20T17:13:13.647Z,6.70
2017-05-20T17:15:40.883Z,5.90
2017-05-20T17:18:08.389Z,5.10
2017-05-20T17:20:35.619Z,5.08
2017-05-20T17:23:02.954Z,4.72
2017-05-20T17:28:53.121Z,5.94
2017-05-20T17:45:03.977Z,5.66
2017-05-20T17:47:31.299Z,5.76
2017-05-20T17:49:59.433Z,6.88
2017-05-20T17:52:28.633Z,5.98
2017-05-20T17:54:55.817Z,7.42
2017-05-20T17:57:23.020Z,6.16
2017-05-20T17:59:50.256Z,6.18
2017-05-20T18:02:18.559Z,6.62
2017-05-20T18:07:31.509Z,6.84
2017-05-20T18:09:58.832Z,6.70
2017-05-20T18:12:29.721Z,7.24
2017-05-20T18:14:57.041Z,6.64
2017-05-20T18:17:24.708Z,6.52
2017-05-20T18:19:51.904Z,9.22
2017-05-20T18:22:19.747Z,6.56
2017-05-20T18:24:46.994Z,6.44
2017-05-20T18:27:14.182Z,6.82
2017-05-20T18:32:28.622Z,7.08
2017-05-20T18:35:04.271Z,6.22
2017-05-20T18:37:32.478Z,6.38
2017-05-20T18:39:59.673Z,7.96
2017-05-20T18:42:26.914Z,6.48
2017-05-20T18:44:54.131Z,7.76
2017-05-20T18:47:22.110Z,6.96
2017-05-20T18:49:49.476Z,6.24
2017-05-20T18:52:16.624Z,6.74
2017-05-20T18:54:43.843Z,6.70
2017-05-20T18:57:16.426Z,6.28
2017-05-20T18:59:43.664Z,6.38
2017-05-20T19:02:14.276Z,6.54
2017-05-20T19:04:41.495Z,7.08
2017-05-20T19:07:08.684Z,7.62
2017-05-20T19:09:35.912Z,7.12
2017-05-20T19:12:03.153Z,7.46
2017-05-20T19:14:30.386Z,6.88
2017-05-20T19:16:57.599Z,7.50
2017-05-20T19:19:24.831Z,9.38
2017-05-20T19:21:52.059Z,9.14
2017-05-20T19:24:19.316Z,9.48
2017-05-20T19:26:46.583Z,10.28
2017-05-20T19:29:14.010Z,10.64
2017-05-20T19:31:49.521Z,10.00
2017-05-20T19:34:17.119Z,13.18
2017-05-20T19:36:44.674Z,11.08
2017-05-20T19:39:11.985Z,10.82
2017-05-20T19:41:52.955Z,11.18
2017-05-20T19:44:20.273Z,11.32
2017-05-20T19:46:48.491Z,10.48
2017-05-20T19:49:15.726Z,11.60
2017-05-20T19:51:44.922Z,11.74
2017-05-20T19:54:12.147Z,11.46
2017-05-20T19:56:39.593Z,12.32
2017-05-20T19:59:06.852Z,11.40
2017-05-20T20:01:34.083Z,12.20
2017-05-20T20:04:04.804Z,12.38
2017-05-20T20:06:32.045Z,11.50
2017-05-20T20:08:59.372Z,15.22
2017-05-20T20:11:28.505Z,12.04
2017-05-20T20:13:55.802Z,12.36
2017-05-20T20:16:23.166Z,12.88
2017-05-20T20:18:51.306Z,12.42
2017-05-20T20:21:18.570Z,12.68
2017-05-20T20:23:45.790Z,12.46
2017-05-20T20:26:13.072Z,11.24
2017-05-20T20:28:40.306Z,13.32
2017-05-20T20:31:07.522Z,12.78
2017-05-20T20:33:34.765Z,12.84
2017-05-20T20:36:02.056Z,13.06
2017-05-20T20:38:35.587Z,13.22
2017-05-20T20:41:05.117Z,12.80
2017-05-20T20:43:32.828Z,12.80
2017-05-20T20:46:02.007Z,12.08
2017-05-20T20:48:29.266Z,11.96
2017-05-20T20:50:56.976Z,12.34
2017-05-20T20:53:24.298Z,11.94
2017-05-20T20:55:53.634Z,10.80
2017-05-20T20:58:20.904Z,11.98
2017-05-20T21:00:48.224Z,11.90
2017-05-20T21:03:15.540Z,11.64
2017-05-20T21:05:42.744Z,10.74
2017-05-20T21:08:10.991Z,11.58
2017-05-20T21:10:38.407Z,11.68
2017-05-20T21:13:05.686Z,11.28
2017-05-20T21:15:32.958Z,11.42
2017-05-20T21:18:00.201Z,10.70
2017-05-20T21:20:30.390Z,11.52
2017-05-20T21:22:57.701Z,10.88
2017-05-20T21:25:24.971Z,11.86
2017-05-20T21:27:52.269Z,11.04
2017-05-20T21:30:19.494Z,11.38
2017-05-20T21:32:46.806Z,10.40
2017-05-20T21:35:14.029Z,10.48
2017-05-20T21:37:41.231Z,10.16
2017-05-20T21:40:08.463Z,10.56
2017-05-20T21:42:35.687Z,10.62
2017-05-20T21:45:02.948Z,10.76
2017-05-20T21:47:30.186Z,10.62
2017-05-20T21:49:57.574Z,9.88
2017-05-20T21:52:24.875Z,11.32
2017-05-20T21:54:52.075Z,10.78
2017-05-20T21:57:19.379Z,11.46
2017-05-20T21:59:46.584Z,11.04
2017-05-20T22:02:13.898Z,11.52
2017-05-20T22:04:41.243Z,11.42
2017-05-20T22:07:08.537Z,10.86
2017-05-20T22:09:36.345Z,11.14
2017-05-20T22:12:03.607Z,11.04
2017-05-20T22:17:23.695Z,10.84
2017-05-20T22:19:59.103Z,11.66
2017-05-20T22:22:29.754Z,10.78
2017-05-20T22:24:57.170Z,11.10
2017-05-20T22:30:15.219Z,10.98
2017-05-20T22:32:44.504Z,11.66
2017-05-20T22:35:11.831Z,12.58
2017-05-20T22:37:39.080Z,11.30
2017-05-20T22:40:06.313Z,11.16
2017-05-20T22:42:33.558Z,11.54
2017-05-20T22:45:00.775Z,10.86
2017-05-20T22:47:27.975Z,10.90
2017-05-20T22:49:56.198Z,11.78
2017-05-20T22:52:23.481Z,13.90
2017-05-20T22:54:50.778Z,11.62
2017-05-20T22:57:17.979Z,12.50
2017-05-20T22:59:45.212Z,12.36
2017-05-20T23:02:12.457Z,12.06
2017-05-20T23:04:39.650Z,13.62
2017-05-20T23:07:06.903Z,13.26
2017-05-20T23:09:34.099Z,12.94
2017-05-20T23:12:01.342Z,11.78
2017-05-20T23:14:28.548Z,14.14
2017-05-20T23:16:55.761Z,12.42
2017-05-20T23:19:23.000Z,13.44
2017-05-20T23:21:50.242Z,12.68
2017-05-20T23:24:17.502Z,11.92
2017-05-20T23:26:44.784Z,12.64
2017-05-20T23:29:12.046Z,11.86
2017-05-20T23:31:40.256Z,11.88
2017-05-20T23:34:10.322Z,13.42
2017-05-20T23:36:42.173Z,12.68
2017-05-20T23:39:09.383Z,12.06
2017-05-20T23:41:36.618Z,12.26
2017-05-20T23:44:03.814Z,12.96
2017-05-20T23:46:31.085Z,12.44
2017-05-20T23:48:58.424Z,12.80
2017-05-20T23:51:25.783Z,13.90
2017-05-20T23:53:53.107Z,12.50
2017-05-20T23:56:20.523Z,13.22
2017-05-20T23:58:47.881Z,12.90
